• Join FlightAware (Why Join?)
  • Login
  • US Flag 
06:36AM EDT


 

Airport Tracker/Info


-or-


 

Live Flight TrackerFlight Track Log ✈ N591CA ✈ 09-Jul-2013 ✈ KCGF - KCGF

Flight Track Log - Related Links

Times and Time Zones

All times are in EDT time to prevent confusion due to time zone crossing. See the N591CA flight status page for this flight to view local times or setup timezone preferences in your user account.

Time Position Orientation Groundspeed Altitude Reporting Facility
EDT Latitude Longitude Course Direction KTS MPH feet Rate Location/Type
02:32PM 41.5581 -81.5017 175° South 67 77 1,400  Level Cleveland Center
02:33PM 41.5311 -81.4986 175° South 113 130 2,100 720 Climbing Cleveland Center
02:34PM 41.5231 -81.4650 108° East 116 133 2,800 420 Climbing Cleveland Center
02:35PM 41.5233 -81.4042 90° East 143 165 3,000 60 Climbing Cleveland Center
02:36PM 41.5217 -81.3569 93° East 149 171 3,000  Level Cleveland Center
02:38PM 41.5181 -81.2847 94° East 143 165 3,000  Level Cleveland Center
02:38PM 41.5183 -81.2458 89° East 130 150 3,000 -60 Level Cleveland Center
02:40PM 41.5164 -81.1878 93° East 127 146 2,900 -60 Descending Cleveland Center
02:40PM 41.5167 -81.1544 89° East 122 140 2,900  Level Cleveland Center
02:41PM 41.5394 -81.1767 324° Northwest 114 131 3,000  Climbing Cleveland Center
02:42PM 41.5622 -81.1964 327° Northwest 125 144 3,000  Level Cleveland Center
02:44PM 41.5642 -81.2214 276° West 107 123 3,100  Climbing Cleveland Center
02:45PM 41.5353 -81.1961 147° Southeast 141 162 3,000 -120 Descending Cleveland Center
02:45PM 41.5167 -81.1656 129° Southeast 121 139 2,900 -360 Descending Cleveland Center
02:46PM 41.4939 -81.1347 135° Southeast 120 138 2,400 -480 Descending Cleveland Center
02:48PM 41.4794 -81.1069 125° Southeast 83 96 1,900 -300 Descending Cleveland Center
02:49PM 41.4586 -81.0819 138° Southeast 85 98 1,800 240 Descending Cleveland Center
02:50PM 41.4378 -81.0594 141° Southeast 91 105 2,400 600 Climbing Cleveland Center
02:51PM 41.4314 -81.0761 243° Southwest 108 124 3,200 300 Climbing Cleveland Center
02:52PM 41.4606 -81.1067 322° Northwest 141 162 3,100 -120 Descending Cleveland Center
02:53PM 41.4875 -81.1375 319° Northwest 129 148 3,000 -60 Descending Cleveland Center
02:54PM 41.5206 -81.1711 323° Northwest 123 142 3,000  Level Cleveland Center
02:55PM 41.5478 -81.1714 360° North 121 139 3,000  Level Cleveland Center
02:56PM 41.5664 -81.1908 322° Northwest 109 125 3,000  Level Cleveland Center
02:56PM 41.5517 -81.2131 228° Southwest 98 113 3,000  Level Cleveland Center
02:58PM 41.5269 -81.1822 137° Southeast 116 133 3,000  Level Cleveland Center
02:59PM 41.5144 -81.1461 115° Southeast 118 136 3,000  Level Cleveland Center
03:00PM 41.5353 -81.1517 349° North 114 131 3,000  Level Cleveland Center
03:01PM 41.5478 -81.1881 295° West 98 113 3,000  Level Cleveland Center
03:02PM 41.5289 -81.1850 173° South 113 130 3,000  Level Cleveland Center
03:03PM 41.5125 -81.1489 121° Southeast 120 138 3,000  Level Cleveland Center
03:04PM 41.5292 -81.1544 346° North 110 127 3,000 -120 Level Cleveland Center
03:05PM 41.5061 -81.1764 215° Southwest 115 132 2,800 -60 Descending Cleveland Center
03:06PM 41.4769 -81.1706 171° South 103 119 2,900 120 Climbing Cleveland Center
03:07PM 41.4478 -81.1786 192° South 91 105 3,100 60 Climbing Cleveland Center
03:08PM 41.4603 -81.1483 61° Northeast 132 152 3,100  Level Cleveland Center